sensor_id;sensor_type;location;lat;lon;timestamp;pressure;altitude;pressure_sealevel;temperature;humidity
11017;BME280;54687;50.800;6.772;2023-04-28T00:01:52;60887.47;;;-144.06;48.85
11017;BME280;54687;50.800;6.772;2023-04-28T00:04:19;60956.66;;;-144.06;49.44
11017;BME280;54687;50.800;6.772;2023-04-28T00:06:45;60935.69;;;-144.06;49.58
11017;BME280;54687;50.800;6.772;2023-04-28T00:09:12;60916.84;;;-144.06;49.61
11017;BME280;54687;50.800;6.772;2023-04-28T00:11:39;60925.22;;;-144.06;49.71
11017;BME280;54687;50.800;6.772;2023-04-28T00:14:07;60950.38;;;-144.06;49.45
11017;BME280;54687;50.800;6.772;2023-04-28T00:16:33;60967.13;;;-144.06;49.79
11017;BME280;54687;50.800;6.772;2023-04-28T00:19:00;60921.03;;;-144.06;49.84
11017;BME280;54687;50.800;6.772;2023-04-28T00:21:27;60937.78;;;-144.06;50.16
11017;BME280;54687;50.800;6.772;2023-04-28T00:23:53;60954.56;;;-144.06;50.72
11017;BME280;54687;50.800;6.772;2023-04-28T00:26:20;60937.78;;;-144.06;50.77
11017;BME280;54687;50.800;6.772;2023-04-28T00:28:47;60935.69;;;-144.06;51.12
11017;BME280;54687;50.800;6.772;2023-04-28T00:31:15;60954.56;;;-144.06;51.31
11017;BME280;54687;50.800;6.772;2023-04-28T00:33:42;60937.78;;;-144.06;51.57
11017;BME280;54687;50.800;6.772;2023-04-28T00:36:09;60948.28;;;-144.06;51.53
11017;BME280;54687;50.800;6.772;2023-04-28T00:38:36;60944.09;;;-144.06;52.07
11017;BME280;54687;50.800;6.772;2023-04-28T00:41:03;60929.41;;;-144.06;51.82
11017;BME280;54687;50.800;6.772;2023-04-28T00:43:30;60941.97;;;-144.06;52.19
11017;BME280;54687;50.800;6.772;2023-04-28T00:45:56;60944.09;;;-144.06;52.38
11017;BME280;54687;50.800;6.772;2023-04-28T00:48:24;60937.78;;;-144.06;52.23
11017;BME280;54687;50.800;6.772;2023-04-28T00:50:51;60967.13;;;-144.06;52.12
11017;BME280;54687;50.800;6.772;2023-04-28T00:53:18;60931.50;;;-144.06;52.33
11017;BME280;54687;50.800;6.772;2023-04-28T00:55:45;60975.53;;;-144.06;52.26
11017;BME280;54687;50.800;6.772;2023-04-28T00:58:13;60950.38;;;-144.06;52.15
11017;BME280;54687;50.800;6.772;2023-04-28T01:00:39;60931.50;;;-144.06;51.95
11017;BME280;54687;50.800;6.772;2023-04-28T01:03:06;60954.56;;;-144.06;51.91
11017;BME280;54687;50.800;6.772;2023-04-28T01:05:35;60960.84;;;-144.06;52.20
11017;BME280;54687;50.800;6.772;2023-04-28T01:08:02;60929.41;;;-144.06;52.39
11017;BME280;54687;50.800;6.772;2023-04-28T01:10:29;60956.66;;;-144.06;52.73
11017;BME280;54687;50.800;6.772;2023-04-28T01:12:55;60933.59;;;-144.06;53.08
11017;BME280;54687;50.800;6.772;2023-04-28T01:15:22;60925.22;;;-144.06;53.42
11017;BME280;54687;50.800;6.772;2023-04-28T01:17:48;60937.78;;;-144.06;54.09
11017;BME280;54687;50.800;6.772;2023-04-28T01:20:15;60918.94;;;-144.06;54.34
11017;BME280;54687;50.800;6.772;2023-04-28T01:22:43;60944.09;;;-144.06;54.59
11017;BME280;54687;50.800;6.772;2023-04-28T01:25:11;60939.88;;;-144.06;55.03
11017;BME280;54687;50.800;6.772;2023-04-28T01:27:37;60981.81;;;-144.06;55.04
11017;BME280;54687;50.800;6.772;2023-04-28T01:30:05;60946.19;;;-144.06;55.11
11017;BME280;54687;50.800;6.772;2023-04-28T01:32:32;60944.09;;;-144.06;55.02
11017;BME280;54687;50.800;6.772;2023-04-28T01:34:59;60979.72;;;-144.06;55.38
11017;BME280;54687;50.800;6.772;2023-04-28T01:37:25;60925.22;;;-144.06;55.38
11017;BME280;54687;50.800;6.772;2023-04-28T01:39:52;60952.47;;;-144.06;55.48
11017;BME280;54687;50.800;6.772;2023-04-28T01:42:20;60929.41;;;-144.06;55.80
11017;BME280;54687;50.800;6.772;2023-04-28T01:44:46;60962.94;;;-144.06;55.81
11017;BME280;54687;50.800;6.772;2023-04-28T01:47:13;60944.09;;;-144.06;55.69
11017;BME280;54687;50.800;6.772;2023-04-28T01:49:39;60969.22;;;-144.06;56.02
11017;BME280;54687;50.800;6.772;2023-04-28T01:52:06;60887.47;;;-144.06;55.76
11017;BME280;54687;50.800;6.772;2023-04-28T01:54:33;60962.94;;;-144.06;56.24
11017;BME280;54687;50.800;6.772;2023-04-28T01:56:59;60950.38;;;-144.06;56.19
11017;BME280;54687;50.800;6.772;2023-04-28T01:59:28;60967.13;;;-144.06;56.46
11017;BME280;54687;50.800;6.772;2023-04-28T02:01:54;60954.56;;;-144.06;56.68
11017;BME280;54687;50.800;6.772;2023-04-28T02:04:21;60967.13;;;-144.06;56.80
11017;BME280;54687;50.800;6.772;2023-04-28T02:06:47;60958.75;;;-144.06;57.11
11017;BME280;54687;50.800;6.772;2023-04-28T02:09:14;60954.56;;;-144.06;57.23
11017;BME280;54687;50.800;6.772;2023-04-28T02:11:40;60965.03;;;-144.06;57.11
11017;BME280;54687;50.800;6.772;2023-04-28T02:14:07;60996.50;;;-144.06;57.47
11017;BME280;54687;50.800;6.772;2023-04-28T02:16:35;60944.09;;;-144.06;57.50
11017;BME280;54687;50.800;6.772;2023-04-28T02:19:01;60937.78;;;-144.06;57.42
11017;BME280;54687;50.800;6.772;2023-04-28T02:21:28;60937.78;;;-144.06;58.01
11017;BME280;54687;50.800;6.772;2023-04-28T02:23:55;60946.19;;;-144.06;57.66
11017;BME280;54687;50.800;6.772;2023-04-28T02:26:21;60941.97;;;-144.06;57.58
11017;BME280;54687;50.800;6.772;2023-04-28T02:28:48;60975.53;;;-144.06;58.01
11017;BME280;54687;50.800;6.772;2023-04-28T02:31:15;60960.84;;;-144.06;58.25
11017;BME280;54687;50.800;6.772;2023-04-28T02:33:43;60971.34;;;-144.06;57.98
11017;BME280;54687;50.800;6.772;2023-04-28T02:36:10;60979.72;;;-144.06;58.50
11017;BME280;54687;50.800;6.772;2023-04-28T02:38:36;60956.66;;;-144.06;58.53
11017;BME280;54687;50.800;6.772;2023-04-28T02:41:04;60954.56;;;-144.06;58.20
11017;BME280;54687;50.800;6.772;2023-04-28T02:43:32;60950.38;;;-144.06;58.57
11017;BME280;54687;50.800;6.772;2023-04-28T02:45:59;60952.47;;;-144.06;58.62
11017;BME280;54687;50.800;6.772;2023-04-28T02:48:26;60937.78;;;-144.06;58.52
11017;BME280;54687;50.800;6.772;2023-04-28T02:50:54;60946.19;;;-144.06;58.66
11017;BME280;54687;50.800;6.772;2023-04-28T02:53:21;60992.28;;;-144.06;59.02
11017;BME280;54687;50.800;6.772;2023-04-28T02:55:48;60933.59;;;-144.06;59.33
11017;BME280;54687;50.800;6.772;2023-04-28T02:58:15;61002.78;;;-144.06;59.48
11017;BME280;54687;50.800;6.772;2023-04-28T03:00:42;60935.69;;;-144.06;59.58
11017;BME280;54687;50.800;6.772;2023-04-28T03:03:09;60950.38;;;-144.06;59.86
11017;BME280;54687;50.800;6.772;2023-04-28T03:05:35;60946.19;;;-144.06;60.38
11017;BME280;54687;50.800;6.772;2023-04-28T03:08:04;60998.59;;;-144.06;60.43
11017;BME280;54687;50.800;6.772;2023-04-28T03:10:30;60977.63;;;-144.06;60.77
11017;BME280;54687;50.800;6.772;2023-04-28T03:12:57;61021.63;;;-144.06;61.43
11017;BME280;54687;50.800;6.772;2023-04-28T03:15:24;60954.56;;;-144.06;61.67
11017;BME280;54687;50.800;6.772;2023-04-28T03:17:51;60981.81;;;-144.06;61.58
11017;BME280;54687;50.800;6.772;2023-04-28T03:20:17;60969.22;;;-144.06;62.32
11017;BME280;54687;50.800;6.772;2023-04-28T03:22:44;60971.34;;;-144.06;62.32
11017;BME280;54687;50.800;6.772;2023-04-28T03:25:11;60967.13;;;-144.06;62.29
11017;BME280;54687;50.800;6.772;2023-04-28T03:27:38;60962.94;;;-144.06;62.26
11017;BME280;54687;50.800;6.772;2023-04-28T03:30:06;60992.28;;;-144.06;62.46
11017;BME280;54687;50.800;6.772;2023-04-28T03:32:32;60986.00;;;-144.06;62.49
11017;BME280;54687;50.800;6.772;2023-04-28T03:34:59;60983.91;;;-144.06;62.61
11017;BME280;54687;50.800;6.772;2023-04-28T03:37:25;61004.88;;;-144.06;62.29
11017;BME280;54687;50.800;6.772;2023-04-28T03:39:52;60969.22;;;-144.06;62.35
11017;BME280;54687;50.800;6.772;2023-04-28T03:42:20;60956.66;;;-144.06;62.25
11017;BME280;54687;50.800;6.772;2023-04-28T03:44:47;60983.91;;;-144.06;62.20
11017;BME280;54687;50.800;6.772;2023-04-28T03:47:13;60954.56;;;-144.06;61.95
11017;BME280;54687;50.800;6.772;2023-04-28T03:49:40;60981.81;;;-144.06;61.83
11017;BME280;54687;50.800;6.772;2023-04-28T03:52:06;60992.28;;;-144.06;61.81
11017;BME280;54687;50.800;6.772;2023-04-28T03:54:33;60975.53;;;-144.06;61.70
11017;BME280;54687;50.800;6.772;2023-04-28T03:56:59;60956.66;;;-144.06;61.58
11017;BME280;54687;50.800;6.772;2023-04-28T03:59:27;61004.88;;;-144.06;61.31
11017;BME280;54687;50.800;6.772;2023-04-28T04:01:54;61015.34;;;-144.06;61.43
11017;BME280;54687;50.800;6.772;2023-04-28T04:04:20;61006.97;;;-144.06;61.39
11017;BME280;54687;50.800;6.772;2023-04-28T04:06:47;60975.53;;;-144.06;61.34
11017;BME280;54687;50.800;6.772;2023-04-28T04:09:13;60944.09;;;-144.06;60.90
11017;BME280;54687;50.800;6.772;2023-04-28T04:11:40;60962.94;;;-144.06;60.85
11017;BME280;54687;50.800;6.772;2023-04-28T04:14:07;60992.28;;;-144.06;61.54
11017;BME280;54687;50.800;6.772;2023-04-28T04:16:35;61009.06;;;-144.06;61.66
11017;BME280;54687;50.800;6.772;2023-04-28T04:19:02;60983.91;;;-144.06;61.78
11017;BME280;54687;50.800;6.772;2023-04-28T04:21:29;60979.72;;;-144.06;61.85
11017;BME280;54687;50.800;6.772;2023-04-28T04:23:56;60937.78;;;-144.06;61.24
11017;BME280;54687;50.800;6.772;2023-04-28T04:26:22;60962.94;;;-144.06;61.45
11017;BME280;54687;50.800;6.772;2023-04-28T04:28:49;61000.69;;;-144.06;61.90
11017;BME280;54687;50.800;6.772;2023-04-28T04:31:15;60927.31;;;-144.06;61.98
11017;BME280;54687;50.800;6.772;2023-04-28T04:33:45;60983.91;;;-144.06;61.54
11017;BME280;54687;50.800;6.772;2023-04-28T04:36:11;60969.22;;;-144.06;61.76
11017;BME280;54687;50.800;6.772;2023-04-28T04:38:38;60969.22;;;-144.06;61.61
11017;BME280;54687;50.800;6.772;2023-04-28T04:41:05;60971.34;;;-144.06;61.56
11017;BME280;54687;50.800;6.772;2023-04-28T04:43:32;60983.91;;;-144.06;60.95
11017;BME280;54687;50.800;6.772;2023-04-28T04:45:58;60962.94;;;-144.06;61.00
11017;BME280;54687;50.800;6.772;2023-04-28T04:48:25;60975.53;;;-144.06;60.93
11017;BME280;54687;50.800;6.772;2023-04-28T04:50:53;61013.25;;;-144.06;61.41
11017;BME280;54687;50.800;6.772;2023-04-28T04:53:19;60950.38;;;-144.06;61.63
11017;BME280;54687;50.800;6.772;2023-04-28T04:55:48;60979.72;;;-144.06;61.34
11017;BME280;54687;50.800;6.772;2023-04-28T04:58:15;60952.47;;;-144.06;61.15
11017;BME280;54687;50.800;6.772;2023-04-28T05:00:42;60958.75;;;-144.06;61.07
11017;BME280;54687;50.800;6.772;2023-04-28T05:03:08;60992.28;;;-144.06;61.41
11017;BME280;54687;50.800;6.772;2023-04-28T05:05:36;61000.69;;;-144.06;61.49
11017;BME280;54687;50.800;6.772;2023-04-28T05:08:04;60935.69;;;-144.06;61.88
11017;BME280;54687;50.800;6.772;2023-04-28T05:10:31;60962.94;;;-144.06;62.35
11017;BME280;54687;50.800;6.772;2023-04-28T05:12:58;60962.94;;;-144.06;62.56
11017;BME280;54687;50.800;6.772;2023-04-28T05:15:24;60962.94;;;-144.06;62.98
11017;BME280;54687;50.800;6.772;2023-04-28T05:17:53;60983.91;;;-144.06;62.71
11017;BME280;54687;50.800;6.772;2023-04-28T05:20:19;60969.22;;;-144.06;62.03
11017;BME280;54687;50.800;6.772;2023-04-28T05:22:46;60986.00;;;-144.06;62.18
11017;BME280;54687;50.800;6.772;2023-04-28T05:25:14;60962.94;;;-144.06;61.90
11017;BME280;54687;50.800;6.772;2023-04-28T05:27:41;60946.19;;;-144.06;61.61
11017;BME280;54687;50.800;6.772;2023-04-28T05:30:08;60979.72;;;-144.06;61.16
11017;BME280;54687;50.800;6.772;2023-04-28T05:32:36;60971.34;;;-144.06;60.74
11017;BME280;54687;50.800;6.772;2023-04-28T05:35:04;60960.84;;;-144.06;60.95
11017;BME280;54687;50.800;6.772;2023-04-28T05:37:31;60969.22;;;-144.06;61.06
11017;BME280;54687;50.800;6.772;2023-04-28T05:39:57;60975.53;;;-144.06;60.97
11017;BME280;54687;50.800;6.772;2023-04-28T05:42:25;60971.34;;;-144.06;61.00
11017;BME280;54687;50.800;6.772;2023-04-28T05:44:52;61046.78;;;-144.06;61.07
11017;BME280;54687;50.800;6.772;2023-04-28T05:47:18;61017.44;;;-144.06;60.99
11017;BME280;54687;50.800;6.772;2023-04-28T05:49:45;60939.88;;;-144.06;60.88
11017;BME280;54687;50.800;6.772;2023-04-28T05:52:11;60944.09;;;-144.06;60.80
11017;BME280;54687;50.800;6.772;2023-04-28T05:54:38;60960.84;;;-144.06;60.61
11017;BME280;54687;50.800;6.772;2023-04-28T05:57:05;60967.13;;;-144.06;60.82
11017;BME280;54687;50.800;6.772;2023-04-28T05:59:32;60992.28;;;-144.06;60.72
11017;BME280;54687;50.800;6.772;2023-04-28T06:01:59;60952.47;;;-144.06;60.68
11017;BME280;54687;50.800;6.772;2023-04-28T06:04:26;60933.59;;;-144.06;60.65
11017;BME280;54687;50.800;6.772;2023-04-28T06:06:52;60946.19;;;-144.06;60.27
11017;BME280;54687;50.800;6.772;2023-04-28T06:09:19;60967.13;;;-144.06;60.03
11017;BME280;54687;50.800;6.772;2023-04-28T06:11:45;60931.50;;;-144.06;60.01
11017;BME280;54687;50.800;6.772;2023-04-28T06:14:12;60971.34;;;-144.06;59.77
11017;BME280;54687;50.800;6.772;2023-04-28T06:16:40;60925.22;;;-144.06;59.72
11017;BME280;54687;50.800;6.772;2023-04-28T06:19:07;60939.88;;;-144.06;59.85
11017;BME280;54687;50.800;6.772;2023-04-28T06:21:33;60950.38;;;-144.06;59.53
11017;BME280;54687;50.800;6.772;2023-04-28T06:24:01;60925.22;;;-144.06;59.25
11017;BME280;54687;50.800;6.772;2023-04-28T06:26:28;60952.47;;;-144.06;59.38
11017;BME280;54687;50.800;6.772;2023-04-28T06:28:55;60965.03;;;-144.06;59.43
11017;BME280;54687;50.800;6.772;2023-04-28T06:31:21;60933.59;;;-144.06;59.00
11017;BME280;54687;50.800;6.772;2023-04-28T06:33:49;60954.56;;;-144.06;58.84
11017;BME280;54687;50.800;6.772;2023-04-28T06:36:16;60971.34;;;-144.06;58.94
11017;BME280;54687;50.800;6.772;2023-04-28T06:38:43;60946.19;;;-144.06;58.76
11017;BME280;54687;50.800;6.772;2023-04-28T06:41:10;60946.19;;;-144.06;58.45
11017;BME280;54687;50.800;6.772;2023-04-28T06:43:36;60900.06;;;-144.06;58.11
11017;BME280;54687;50.800;6.772;2023-04-28T06:46:03;60937.78;;;-144.06;58.01
11017;BME280;54687;50.800;6.772;2023-04-28T06:48:31;60912.63;;;-144.06;57.42
11017;BME280;54687;50.800;6.772;2023-04-28T06:50:59;60910.53;;;-144.06;57.24
11017;BME280;54687;50.800;6.772;2023-04-28T06:53:26;60929.41;;;-144.06;56.78
11017;BME280;54687;50.800;6.772;2023-04-28T06:55:52;60929.41;;;-144.06;56.86
11017;BME280;54687;50.800;6.772;2023-04-28T06:58:20;60916.84;;;-144.06;57.12
11017;BME280;54687;50.800;6.772;2023-04-28T07:00:47;60925.22;;;-144.06;56.58
11017;BME280;54687;50.800;6.772;2023-04-28T07:03:14;60904.25;;;-144.06;56.41
11017;BME280;54687;50.800;6.772;2023-04-28T07:05:40;60893.78;;;-144.06;55.15
11017;BME280;54687;50.800;6.772;2023-04-28T07:08:08;60916.84;;;-144.06;53.53
11017;BME280;54687;50.800;6.772;2023-04-28T07:10:35;60851.84;;;-144.06;53.69
11017;BME280;54687;50.800;6.772;2023-04-28T07:13:02;60837.19;;;-144.06;53.56
11017;BME280;54687;50.800;6.772;2023-04-28T07:15:28;60879.09;;;-144.06;53.56
11017;BME280;54687;50.800;6.772;2023-04-28T07:17:57;60904.25;;;-144.06;53.27
11017;BME280;54687;50.800;6.772;2023-04-28T07:20:24;60883.28;;;-144.06;53.12
11017;BME280;54687;50.800;6.772;2023-04-28T07:22:50;60872.81;;;-144.06;53.33
11017;BME280;54687;50.800;6.772;2023-04-28T07:25:18;60881.19;;;-144.06;53.43
11017;BME280;54687;50.800;6.772;2023-04-28T07:27:47;60891.69;;;-144.06;53.65
11017;BME280;54687;50.800;6.772;2023-04-28T07:30:14;60853.94;;;-144.06;53.79
11017;BME280;54687;50.800;6.772;2023-04-28T07:32:41;60921.03;;;-144.06;54.56
11017;BME280;54687;50.800;6.772;2023-04-28T07:35:08;60877.00;;;-144.06;55.03
11017;BME280;54687;50.800;6.772;2023-04-28T07:37:37;60887.47;;;-144.06;55.53
11017;BME280;54687;50.800;6.772;2023-04-28T07:40:05;60889.59;;;-144.06;55.82
11017;BME280;54687;50.800;6.772;2023-04-28T07:42:33;60904.25;;;-144.06;55.73
11017;BME280;54687;50.800;6.772;2023-04-28T07:45:00;60879.09;;;-144.06;55.74
11017;BME280;54687;50.800;6.772;2023-04-28T07:47:27;60889.59;;;-144.06;55.51
11017;BME280;54687;50.800;6.772;2023-04-28T07:49:54;60883.28;;;-144.06;55.71
11017;BME280;54687;50.800;6.772;2023-04-28T07:52:21;60874.91;;;-144.06;55.40
11017;BME280;54687;50.800;6.772;2023-04-28T07:54:48;60830.88;;;-144.06;55.01
11017;BME280;54687;50.800;6.772;2023-04-28T07:57:14;60862.34;;;-144.06;54.46
11017;BME280;54687;50.800;6.772;2023-04-28T07:59:42;60872.81;;;-144.06;54.12
11017;BME280;54687;50.800;6.772;2023-04-28T08:02:09;60843.47;;;-144.06;54.13
11017;BME280;54687;50.800;6.772;2023-04-28T08:04:37;60866.53;;;-144.06;53.07
11017;BME280;54687;50.800;6.772;2023-04-28T08:07:05;60853.94;;;-144.06;52.44
11017;BME280;54687;50.800;6.772;2023-04-28T08:09:32;60837.19;;;-144.06;52.30
11017;BME280;54687;50.800;6.772;2023-04-28T08:11:59;60805.75;;;-144.06;51.24
11017;BME280;54687;50.800;6.772;2023-04-28T08:14:26;60833.00;;;-144.06;49.92
11017;BME280;54687;50.800;6.772;2023-04-28T08:16:55;60778.50;;;-144.06;50.41
11017;BME280;54687;50.800;6.772;2023-04-28T08:19:23;60814.13;;;-144.06;49.49
11017;BME280;54687;50.800;6.772;2023-04-28T08:21:49;60795.25;;;-144.06;50.04
11017;BME280;54687;50.800;6.772;2023-04-28T08:24:16;60797.34;;;-144.06;49.75
11017;BME280;54687;50.800;6.772;2023-04-28T08:26:43;60803.66;;;-144.06;49.25
11017;BME280;54687;50.800;6.772;2023-04-28T08:29:09;60795.25;;;-144.06;49.72
11017;BME280;54687;50.800;6.772;2023-04-28T08:31:36;60801.53;;;-144.06;49.42
11017;BME280;54687;50.800;6.772;2023-04-28T08:34:04;60786.88;;;-144.06;49.61
11017;BME280;54687;50.800;6.772;2023-04-28T08:36:30;60791.06;;;-144.06;49.40
11017;BME280;54687;50.800;6.772;2023-04-28T08:38:59;60822.50;;;-144.06;49.45
11017;BME280;54687;50.800;6.772;2023-04-28T08:41:31;60803.66;;;-144.06;49.78
11017;BME280;54687;50.800;6.772;2023-04-28T08:43:58;60818.31;;;-144.06;50.06
11017;BME280;54687;50.800;6.772;2023-04-28T08:46:26;60818.31;;;-144.06;50.01
11017;BME280;54687;50.800;6.772;2023-04-28T08:48:59;60744.94;;;-144.06;50.08
11017;BME280;54687;50.800;6.772;2023-04-28T08:51:32;60763.81;;;-144.06;50.03
11017;BME280;54687;50.800;6.772;2023-04-28T08:54:03;60797.34;;;-144.06;50.14
11017;BME280;54687;50.800;6.772;2023-04-28T08:56:31;60791.06;;;-144.06;50.33
11017;BME280;54687;50.800;6.772;2023-04-28T08:59:01;60803.66;;;-144.06;50.65
11017;BME280;54687;50.800;6.772;2023-04-28T09:01:30;60793.16;;;-144.06;51.24
11017;BME280;54687;50.800;6.772;2023-04-28T09:03:59;60837.19;;;-144.06;51.59
11017;BME280;54687;50.800;6.772;2023-04-28T09:06:26;60807.84;;;-144.06;52.04
11017;BME280;54687;50.800;6.772;2023-04-28T09:09:17;60799.44;;;-144.06;52.46
11017;BME280;54687;50.800;6.772;2023-04-28T09:11:50;60812.03;;;-144.06;53.19
11017;BME280;54687;50.800;6.772;2023-04-28T09:14:16;60799.44;;;-144.06;53.77
11017;BME280;54687;50.800;6.772;2023-04-28T09:16:43;60822.50;;;-144.06;54.08
11017;BME280;54687;50.800;6.772;2023-04-28T09:19:11;60868.63;;;-144.06;54.92
11017;BME280;54687;50.800;6.772;2023-04-28T09:21:45;60828.78;;;-144.06;55.34
11017;BME280;54687;50.800;6.772;2023-04-28T09:24:25;60822.50;;;-144.06;55.54
11017;BME280;54687;50.800;6.772;2023-04-28T09:26:52;60809.94;;;-144.06;55.38
11017;BME280;54687;50.800;6.772;2023-04-28T09:29:18;60835.09;;;-144.06;55.80
11017;BME280;54687;50.800;6.772;2023-04-28T09:31:45;60824.59;;;-144.06;55.99
11017;BME280;54687;50.800;6.772;2023-04-28T09:34:11;60803.66;;;-144.06;55.67
11017;BME280;54687;50.800;6.772;2023-04-28T09:36:38;60833.00;;;-144.06;55.65
11017;BME280;54687;50.800;6.772;2023-04-28T09:39:05;60824.59;;;-144.06;55.53
11017;BME280;54687;50.800;6.772;2023-04-28T09:41:37;60822.50;;;-144.06;55.67
11017;BME280;54687;50.800;6.772;2023-04-28T09:44:15;60830.88;;;-144.06;56.12
11017;BME280;54687;50.800;6.772;2023-04-28T09:46:43;60812.03;;;-144.06;55.71
11017;BME280;54687;50.800;6.772;2023-04-28T09:49:11;60812.03;;;-144.06;55.55
11017;BME280;54687;50.800;6.772;2023-04-28T09:51:38;60786.88;;;-144.06;55.00
11017;BME280;54687;50.800;6.772;2023-04-28T09:54:05;60816.22;;;-144.06;54.94
11017;BME280;54687;50.800;6.772;2023-04-28T09:56:33;60818.31;;;-144.06;54.94
11017;BME280;54687;50.800;6.772;2023-04-28T09:59:04;60803.66;;;-144.06;56.52
11017;BME280;54687;50.800;6.772;2023-04-28T10:01:32;60816.22;;;-144.06;57.18
11017;BME280;54687;50.800;6.772;2023-04-28T10:04:00;60835.09;;;-144.06;57.87
11017;BME280;54687;50.800;6.772;2023-04-28T10:06:28;60841.38;;;-144.06;58.72
11017;BME280;54687;50.800;6.772;2023-04-28T10:08:55;60830.88;;;-144.06;59.01
11017;BME280;54687;50.800;6.772;2023-04-28T10:11:23;60830.88;;;-144.06;59.31
11017;BME280;54687;50.800;6.772;2023-04-28T10:13:52;60803.66;;;-144.06;59.43
11017;BME280;54687;50.800;6.772;2023-04-28T10:16:21;60843.47;;;-144.06;59.52
11017;BME280;54687;50.800;6.772;2023-04-28T10:18:48;60860.25;;;-144.06;59.12
11017;BME280;54687;50.800;6.772;2023-04-28T10:21:17;60812.03;;;-144.06;58.24
11017;BME280;54687;50.800;6.772;2023-04-28T10:24:08;60784.78;;;-144.06;57.12
11017;BME280;54687;50.800;6.772;2023-04-28T10:29:38;60807.84;;;-144.06;57.04
11017;BME280;54687;50.800;6.772;2023-04-28T10:32:17;60816.22;;;-144.06;56.66
11017;BME280;54687;50.800;6.772;2023-04-28T10:34:44;60830.88;;;-144.06;56.94
11017;BME280;54687;50.800;6.772;2023-04-28T10:37:11;60795.25;;;-144.06;57.34
11017;BME280;54687;50.800;6.772;2023-04-28T10:39:39;60809.94;;;-144.06;56.83
11017;BME280;54687;50.800;6.772;2023-04-28T10:45:08;60814.13;;;-144.06;56.85
11017;BME280;54687;50.800;6.772;2023-04-28T10:48:00;60822.50;;;-144.06;57.11
11017;BME280;54687;50.800;6.772;2023-04-28T10:50:31;60816.22;;;-144.06;56.90
11017;BME280;54687;50.800;6.772;2023-04-28T10:52:57;60803.66;;;-144.06;56.86
11017;BME280;54687;50.800;6.772;2023-04-28T10:55:29;60812.03;;;-144.06;55.40
11017;BME280;54687;50.800;6.772;2023-04-28T10:58:29;60774.28;;;-144.06;53.15
11017;BME280;54687;50.800;6.772;2023-04-28T11:01:24;60715.59;;;-144.06;52.43
11017;BME280;54687;50.800;6.772;2023-04-28T11:03:54;60740.75;;;-144.06;51.42
11017;BME280;54687;50.800;6.772;2023-04-28T11:06:28;60732.38;;;-144.06;50.57
11017;BME280;54687;50.800;6.772;2023-04-28T11:08:58;60747.06;;;-144.06;51.00
11017;BME280;54687;50.800;6.772;2023-04-28T11:11:26;60753.34;;;-144.06;50.60
11017;BME280;54687;50.800;6.772;2023-04-28T11:13:54;60721.91;;;-144.06;50.86
11017;BME280;54687;50.800;6.772;2023-04-28T11:16:23;60732.38;;;-144.06;50.37
11017;BME280;54687;50.800;6.772;2023-04-28T11:18:59;60698.84;;;-144.06;49.71
11017;BME280;54687;50.800;6.772;2023-04-28T11:21:29;60690.47;;;-144.06;49.89
11017;BME280;54687;50.800;6.772;2023-04-28T11:23:57;60738.66;;;-144.06;49.47
11017;BME280;54687;50.800;6.772;2023-04-28T11:26:24;60709.31;;;-144.06;49.13
11017;BME280;54687;50.800;6.772;2023-04-28T11:28:54;60698.84;;;-144.06;49.37
11017;BME280;54687;50.800;6.772;2023-04-28T11:31:22;60690.47;;;-144.06;49.00
11017;BME280;54687;50.800;6.772;2023-04-28T11:33:52;60686.25;;;-144.06;49.06
11017;BME280;54687;50.800;6.772;2023-04-28T11:36:32;60732.38;;;-144.06;49.84
11017;BME280;54687;50.800;6.772;2023-04-28T11:39:01;60724.00;;;-144.06;50.29
11017;BME280;54687;50.800;6.772;2023-04-28T11:41:29;60736.56;;;-144.06;50.12
11017;BME280;54687;50.800;6.772;2023-04-28T11:43:56;60719.81;;;-144.06;49.32
11017;BME280;54687;50.800;6.772;2023-04-28T11:46:24;60744.94;;;-144.06;49.19
11017;BME280;54687;50.800;6.772;2023-04-28T11:48:59;60709.31;;;-144.06;50.15
11017;BME280;54687;50.800;6.772;2023-04-28T11:51:33;60721.91;;;-144.06;50.12
11017;BME280;54687;50.800;6.772;2023-04-28T11:54:01;60717.72;;;-144.06;49.68
11017;BME280;54687;50.800;6.772;2023-04-28T11:56:29;60686.25;;;-144.06;49.25
11017;BME280;54687;50.800;6.772;2023-04-28T11:59:00;60700.94;;;-144.06;48.86
11017;BME280;54687;50.800;6.772;2023-04-28T12:01:31;60665.31;;;-144.06;48.11
11017;BME280;54687;50.800;6.772;2023-04-28T12:03:58;60749.16;;;-144.06;47.90
11017;BME280;54687;50.800;6.772;2023-04-28T12:06:25;60721.91;;;-144.06;47.35
11017;BME280;54687;50.800;6.772;2023-04-28T12:08:54;60686.25;;;-144.06;47.12
11017;BME280;54687;50.800;6.772;2023-04-28T12:11:22;60700.94;;;-144.06;46.92
11017;BME280;54687;50.800;6.772;2023-04-28T12:14:05;60719.81;;;-144.06;47.41
11017;BME280;54687;50.800;6.772;2023-04-28T12:16:39;60696.75;;;-144.06;47.68
11017;BME280;54687;50.800;6.772;2023-04-28T12:19:10;60690.47;;;-144.06;47.74
11017;BME280;54687;50.800;6.772;2023-04-28T12:21:37;60682.06;;;-144.06;46.91
11017;BME280;54687;50.800;6.772;2023-04-28T12:24:17;60682.06;;;-144.06;45.84
11017;BME280;54687;50.800;6.772;2023-04-28T12:26:44;60656.91;;;-144.06;45.50
11017;BME280;54687;50.800;6.772;2023-04-28T12:29:38;60661.13;;;-144.06;44.47
11017;BME280;54687;50.800;6.772;2023-04-28T12:32:06;60690.47;;;-144.06;44.32
11017;BME280;54687;50.800;6.772;2023-04-28T12:34:33;60682.06;;;-144.06;45.23
11017;BME280;54687;50.800;6.772;2023-04-28T12:37:00;60684.16;;;-144.06;45.97
11017;BME280;54687;50.800;6.772;2023-04-28T12:39:31;60673.69;;;-144.06;45.71
11017;BME280;54687;50.800;6.772;2023-04-28T12:41:58;60671.59;;;-144.06;47.24
11017;BME280;54687;50.800;6.772;2023-04-28T12:44:26;60667.41;;;-144.06;46.36
11017;BME280;54687;50.800;6.772;2023-04-28T12:46:54;60665.31;;;-144.06;46.20
11017;BME280;54687;50.800;6.772;2023-04-28T12:49:21;60627.56;;;-144.06;45.73
11017;BME280;54687;50.800;6.772;2023-04-28T12:51:47;60635.97;;;-144.06;45.74